createdAt,value
2016-12-27T00:05:02.997Z,76.3
2016-12-27T00:15:14.538Z,76
2016-12-27T00:25:26.053Z,75.4
2016-12-27T00:35:37.594Z,76.3
2016-12-27T00:45:49.158Z,77.4
2016-12-27T00:56:00.704Z,77.7
2016-12-27T01:06:12.338Z,77.5
2016-12-27T01:16:23.924Z,77.7
2016-12-27T01:26:35.537Z,77.9
2016-12-27T01:36:47.108Z,78.3
2016-12-27T01:46:58.648Z,79
2016-12-27T01:57:10.224Z,80.1
2016-12-27T02:07:21.808Z,81.3
2016-12-27T02:17:33.373Z,82.4
2016-12-27T02:27:44.929Z,81.9
2016-12-27T02:37:56.521Z,83.2
2016-12-27T02:48:08.020Z,84.5
2016-12-27T02:58:19.551Z,84.8
2016-12-27T03:08:31.089Z,84.9
2016-12-27T03:18:42.644Z,84.9
2016-12-27T03:28:54.190Z,86.5
2016-12-27T03:39:05.829Z,86.1
2016-12-27T03:49:17.458Z,86.6
2016-12-27T03:59:29.109Z,87.1
2016-12-27T04:09:40.765Z,87.3
2016-12-27T04:19:52.391Z,87.6
2016-12-27T04:30:03.992Z,88.5
2016-12-27T04:40:15.556Z,89.7
2016-12-27T04:50:27.221Z,89.3
2016-12-27T05:00:38.915Z,89.5
2016-12-27T05:10:50.633Z,89.4
2016-12-27T05:21:02.315Z,89.1
2016-12-27T05:31:13.952Z,87.8
2016-12-27T05:41:25.702Z,87.9
2016-12-27T05:51:37.242Z,88.2
2016-12-27T06:01:48.920Z,90.4
2016-12-27T06:12:00.613Z,92.2
2016-12-27T06:22:12.326Z,93.7
2016-12-27T06:32:24.055Z,93
2016-12-27T06:42:35.828Z,92.5
2016-12-27T06:52:47.641Z,93.4
2016-12-27T07:02:59.476Z,94.3
2016-12-27T07:13:11.272Z,94.5
2016-12-27T07:23:23.011Z,96.4
2016-12-27T07:33:34.795Z,94.8
2016-12-27T07:43:46.602Z,95.2
2016-12-27T07:53:58.346Z,93.2
2016-12-27T08:04:09.979Z,92.2
2016-12-27T08:14:21.588Z,92.2
2016-12-27T08:24:33.181Z,89.6
2016-12-27T08:34:44.721Z,90.1
2016-12-27T08:44:56.268Z,89.3
2016-12-27T08:55:07.737Z,89.3
2016-12-27T09:05:19.148Z,89.9
2016-12-27T09:15:30.563Z,89.7
2016-12-27T09:25:41.888Z,90
2016-12-27T09:35:53.252Z,90.4
2016-12-27T09:46:04.600Z,90.4
2016-12-27T09:56:15.874Z,88.7
2016-12-27T10:06:26.984Z,86.4
2016-12-27T10:16:37.830Z,84.2
2016-12-27T10:26:48.482Z,82.6
2016-12-27T10:36:59.114Z,81.5
2016-12-27T10:47:09.629Z,80.5
2016-12-27T10:57:20.186Z,80.6
2016-12-27T11:07:30.561Z,79.7
2016-12-27T11:17:40.958Z,79.3
2016-12-27T11:27:51.321Z,79
2016-12-27T11:38:01.644Z,77.2
2016-12-27T11:48:11.946Z,76.7
2016-12-27T11:58:22.178Z,76.4
2016-12-27T12:08:32.387Z,78.1
2016-12-27T12:18:42.606Z,77.8
2016-12-27T12:28:52.811Z,77.8
2016-12-27T12:39:02.903Z,76.8
2016-12-27T12:49:12.920Z,77.5
2016-12-27T12:59:22.847Z,78.2
2016-12-27T13:09:32.787Z,78.9
2016-12-27T13:19:42.802Z,79.1
2016-12-27T13:29:53.034Z,78.6
2016-12-27T13:40:03.316Z,77.9
2016-12-27T13:50:13.705Z,77.2
2016-12-27T14:00:24.231Z,76.7
2016-12-27T14:10:34.818Z,78.2
2016-12-27T14:20:45.287Z,77.9
2016-12-27T14:30:55.630Z,79.3
2016-12-27T14:41:06.055Z,81
2016-12-27T14:51:16.649Z,81.9
2016-12-27T15:01:27.313Z,81.7
2016-12-27T15:11:38.022Z,81.9
2016-12-27T15:21:48.740Z,82.1
2016-12-27T15:31:59.542Z,82.7
2016-12-27T15:42:10.345Z,82.3
2016-12-27T15:52:21.264Z,82.4
2016-12-27T16:02:32.164Z,82.8
2016-12-27T16:12:43.039Z,83
2016-12-27T16:22:53.925Z,84
2016-12-27T16:33:04.813Z,84.3
2016-12-27T16:43:15.722Z,86
2016-12-27T16:53:26.706Z,86.5
2016-12-27T17:03:37.784Z,87.1
2016-12-27T17:13:48.944Z,87.5
2016-12-27T17:24:00.046Z,88.1
2016-12-27T17:34:11.172Z,88
2016-12-27T17:44:22.362Z,88.7
2016-12-27T17:54:33.537Z,88.7
2016-12-27T18:04:44.675Z,89.6
2016-12-27T18:14:55.863Z,90.1
2016-12-27T18:25:07.089Z,90.2
2016-12-27T18:35:18.399Z,90.8
2016-12-27T18:45:29.697Z,91.3
2016-12-27T18:55:40.960Z,91.9
2016-12-27T19:05:52.295Z,92.2
2016-12-27T19:16:03.642Z,92.8
2016-12-27T19:26:14.973Z,93.3
2016-12-27T19:36:26.303Z,92.9
2016-12-27T19:46:37.692Z,94
2016-12-27T19:56:49.108Z,93.8
2016-12-27T20:07:00.526Z,93.8
2016-12-27T20:17:11.958Z,93.6
2016-12-27T20:27:23.357Z,93.8
2016-12-27T20:37:34.768Z,93.9
2016-12-27T20:47:46.180Z,94.2
2016-12-27T20:57:57.580Z,94.2
2016-12-27T21:08:08.955Z,95.5
2016-12-27T21:18:20.321Z,96.1
2016-12-27T21:28:31.688Z,96.7
2016-12-27T21:38:43.066Z,96.5
2016-12-27T21:48:54.470Z,96.5
2016-12-27T21:59:05.922Z,96.2
2016-12-27T22:09:17.290Z,96.5
2016-12-27T22:19:28.670Z,96.5
2016-12-27T22:29:39.984Z,96.5
2016-12-27T22:39:51.309Z,96.7
2016-12-27T22:50:02.668Z,96.1
2016-12-27T23:00:14.034Z,96
2016-12-27T23:10:25.344Z,96
2016-12-27T23:20:36.664Z,94.9
2016-12-27T23:30:47.936Z,95.1
2016-12-27T23:40:59.213Z,95.8
2016-12-27T23:51:10.505Z,96.2
